Time;durP1;ratioP1;P1;durP2;ratioP2;P2;SDS_P1;SDS_P2;PMS_P1;PMS_P2;Temp;Humidity;BMP_temperature;BMP_pressure;BME280_temperature;BME280_humidity;BME280_pressure;Samples;Min_cycle;Max_cycle;Signal;HPM_P1;HPM_P2
2022/11/30 00:00:36;;;;;;;9.00;6.30;;;;;;;;;;108002;1277;23229;-30
2022/11/30 00:03:23;;;;;;;8.20;6.40;;;;;;;;;;108036;1275;22510;-30
2022/11/30 00:05:54;;;;;;;;;;;;;;;;;;108105;1275;25409;-30
2022/11/30 00:08:28;;;;;;;7.90;6.40;;;;;;;;;;108041;1281;23081;-30
2022/11/30 00:11:00;;;;;;;8.20;6.10;;;;;;;;;;108033;1268;22606;-30
2022/11/30 00:13:32;;;;;;;8.40;6.20;;;;;;;;;;108048;1275;22553;-30
2022/11/30 00:16:06;;;;;;;8.50;6.50;;;;;;;;;;108033;1274;22570;-30
2022/11/30 00:18:37;;;;;;;;;;;;;;;;;;108061;1277;22559;-30
2022/11/30 00:21:13;;;;;;;8.40;5.60;;;;;;;;;;108042;1267;22591;-30
2022/11/30 00:23:48;;;;;;;8.70;6.30;;;;;;;;;;108060;1280;24193;-30
2022/11/30 00:26:22;;;;;;;8.40;6.50;;;;;;;;;;108052;1277;24192;-30
2022/11/30 00:28:55;;;;;;;8.20;6.80;;;;;;;;;;108031;1274;22645;-30
2022/11/30 00:31:27;;;;;;;8.70;6.30;;;;;;;;;;108059;1278;22565;-30
2022/11/30 00:34:00;;;;;;;8.70;6.60;;;;;;;;;;108067;1273;25246;-30
2022/11/30 00:36:31;;;;;;;;;;;;;;;;;;108078;1274;22583;-30
2022/11/30 00:39:04;;;;;;;9.40;6.60;;;;;;;;;;107978;1273;22578;-30
2022/11/30 00:41:37;;;;;;;7.90;6.10;;;;;;;;;;108088;1274;23849;-30
2022/11/30 00:44:10;;;;;;;7.90;6.10;;;;;;;;;;108047;1274;23431;-30
2022/11/30 00:46:43;;;;;;;8.00;6.10;;;;;;;;;;108085;1277;25411;-30
2022/11/30 00:49:18;;;;;;;8.40;6.40;;;;;;;;;;108007;1281;22612;-30
2022/11/30 00:51:51;;;;;;;9.00;6.40;;;;;;;;;;108063;1274;22506;-30
2022/11/30 00:54:24;;;;;;;8.70;6.50;;;;;;;;;;108118;1268;22523;-30
2022/11/30 00:56:59;;;;;;;8.30;6.40;;;;;;;;;;108064;1274;25416;-30
2022/11/30 00:59:34;;;;;;;9.10;6.70;;;;;;;;;;108030;1270;22613;-30
2022/11/30 01:02:06;;;;;;;8.70;6.60;;;;;;;;;;108080;1277;22583;-30
2022/11/30 01:04:38;;;;;;;7.90;5.90;;;;;;;;;;108053;1276;22515;-30
2022/11/30 01:07:10;;;;;;;9.00;6.80;;;;;;;;;;108084;1274;22623;-30
2022/11/30 01:09:42;;;;;;;8.80;6.50;;;;;;;;;;108016;1278;22597;-30
2022/11/30 01:12:18;;;;;;;8.20;6.00;;;;;;;;;;108099;1275;22524;-30
2022/11/30 01:14:52;;;;;;;8.30;6.40;;;;;;;;;;108086;1268;22586;-30
2022/11/30 01:17:25;;;;;;;8.80;6.20;;;;;;;;;;108103;1274;22633;-30
2022/11/30 01:19:58;;;;;;;8.70;6.40;;;;;;;;;;108032;1275;22568;-30
2022/11/30 01:22:30;;;;;;;8.70;6.60;;;;;;;;;;108085;1276;24229;-30
2022/11/30 01:25:04;;;;;;;7.80;6.00;;;;;;;;;;108094;1274;25235;-30
2022/11/30 01:27:40;;;;;;;8.60;6.20;;;;;;;;;;108063;1275;24575;-30
2022/11/30 01:30:18;;;;;;;8.40;6.50;;;;;;;;;;108042;1274;22582;-30
2022/11/30 01:32:51;;;;;;;8.10;6.20;;;;;;;;;;108125;1281;22517;-30
2022/11/30 01:35:27;;;;;;;9.00;6.00;;;;;;;;;;108095;1273;22627;-30
2022/11/30 01:37:59;;;;;;;9.40;6.50;;;;;;;;;;108263;1272;25444;-30
2022/11/30 01:40:36;;;;;;;8.60;6.30;;;;;;;;;;108152;1271;25238;-30
2022/11/30 01:43:14;;;;;;;;;;;;;;;;;;108209;1272;25222;-30
2022/11/30 01:45:48;;;;;;;8.30;6.00;;;;;;;;;;108173;1272;22581;-30
2022/11/30 01:48:24;;;;;;;7.90;5.80;;;;;;;;;;108169;1276;22549;-30
2022/11/30 01:50:57;;;;;;;7.70;6.10;;;;;;;;;;108218;1276;22517;-30
2022/11/30 01:53:29;;;;;;;7.90;5.80;;;;;;;;;;108211;1271;22690;-30
2022/11/30 01:56:02;;;;;;;7.30;5.60;;;;;;;;;;108222;1271;22622;-30
2022/11/30 01:58:35;;;;;;;7.30;5.40;;;;;;;;;;108222;1277;22651;-30
2022/11/30 02:01:08;;;;;;;7.60;6.00;;;;;;;;;;108185;1273;22708;-30
2022/11/30 02:03:48;;;;;;;8.00;5.90;;;;;;;;;;108198;1274;25404;-30
2022/11/30 02:06:21;;;;;;;8.70;6.10;;;;;;;;;;108180;1274;22578;-30
2022/11/30 02:08:55;;;;;;;8.10;5.80;;;;;;;;;;108212;1271;22677;-30
2022/11/30 02:11:30;;;;;;;7.30;5.70;;;;;;;;;;108357;1279;25397;-30
2022/11/30 02:14:14;;;;;;;7.40;5.60;;;;;;;;;;108266;1269;22583;-30
2022/11/30 02:16:59;;;;;;;7.50;5.60;;;;;;;;;;108243;1271;22662;-30
2022/11/30 02:20:13;;;;;;;7.10;5.60;;;;;;;;;;108232;1265;22960;-30
2022/11/30 02:23:02;;;;;;;8.70;5.80;;;;;;;;;;108200;1272;24753;-30
2022/11/30 02:25:45;;;;;;;8.10;5.50;;;;;;;;;;108176;1272;22513;-30
2022/11/30 02:28:45;;;;;;;;;;;;;;;;;;108178;1271;22568;-30
2022/11/30 02:31:23;;;;;;;7.90;5.30;;;;;;;;;;108166;1273;25422;-30
2022/11/30 02:33:58;;;;;;;7.30;5.50;;;;;;;;;;108182;1271;23035;-30
2022/11/30 02:36:32;;;;;;;7.10;5.40;;;;;;;;;;108191;1264;22524;-30
2022/11/30 02:39:05;;;;;;;7.60;5.60;;;;;;;;;;108205;1271;25458;-30
2022/11/30 02:41:42;;;;;;;6.80;5.20;;;;;;;;;;108162;1264;25978;-30
2022/11/30 02:44:16;;;;;;;7.40;5.40;;;;;;;;;;108148;1271;24203;-30
2022/11/30 02:47:04;;;;;;;7.40;5.80;;;;;;;;;;108151;1264;22556;-30
2022/11/30 02:49:46;;;;;;;7.20;5.30;;;;;;;;;;108124;1273;24203;-30
2022/11/30 02:52:26;;;;;;;7.30;5.80;;;;;;;;;;108295;1271;22589;-30
2022/11/30 02:55:07;;;;;;;7.20;5.50;;;;;;;;;;108184;1271;25442;-30
2022/11/30 02:57:44;;;;;;;8.00;5.80;;;;;;;;;;108182;1271;23902;-30
2022/11/30 03:00:19;;;;;;;6.60;5.00;;;;;;;;;;108146;1271;22587;-30
2022/11/30 03:02:52;;;;;;;7.20;5.70;;;;;;;;;;108146;1276;25422;-30
2022/11/30 03:05:24;;;;;;;6.80;5.20;;;;;;;;;;108150;1276;22603;-30
2022/11/30 03:07:57;;;;;;;7.90;5.40;;;;;;;;;;108152;1268;22550;-30
2022/11/30 03:10:32;;;;;;;7.60;5.70;;;;;;;;;;108104;1275;24382;-30
2022/11/30 03:13:04;;;;;;;8.10;5.60;;;;;;;;;;108170;1265;25435;-30
2022/11/30 03:15:38;;;;;;;7.10;5.20;;;;;;;;;;108185;1271;22581;-30
2022/11/30 03:18:10;;;;;;;6.50;4.90;;;;;;;;;;108205;1272;22567;-30
2022/11/30 03:20:45;;;;;;;8.10;5.70;;;;;;;;;;108175;1271;25336;-30
2022/11/30 03:23:18;;;;;;;7.00;5.30;;;;;;;;;;108143;1276;22572;-30
2022/11/30 03:25:52;;;;;;;7.60;5.40;;;;;;;;;;108167;1273;22535;-29
2022/11/30 03:28:25;;;;;;;8.00;5.40;;;;;;;;;;108136;1273;22565;-30
2022/11/30 03:30:58;;;;;;;7.10;5.30;;;;;;;;;;108148;1273;22545;-30
2022/11/30 03:33:30;;;;;;;7.40;5.70;;;;;;;;;;108195;1279;22565;-29
2022/11/30 03:36:05;;;;;;;7.00;5.60;;;;;;;;;;108196;1271;22568;-30
2022/11/30 03:38:38;;;;;;;7.10;5.10;;;;;;;;;;108215;1269;22622;-30
2022/11/30 03:41:15;;;;;;;7.70;5.50;;;;;;;;;;108163;1271;22574;-30
2022/11/30 03:43:48;;;;;;;7.50;5.30;;;;;;;;;;108114;1270;22575;-29
2022/11/30 03:46:20;;;;;;;7.00;5.20;;;;;;;;;;108141;1271;22521;-30
2022/11/30 03:48:55;;;;;;;7.50;5.70;;;;;;;;;;108171;1273;22630;-30
2022/11/30 03:51:27;;;;;;;7.50;5.60;;;;;;;;;;108133;1273;25067;-30
2022/11/30 03:54:02;;;;;;;7.90;6.00;;;;;;;;;;108192;1271;22588;-30
2022/11/30 03:56:36;;;;;;;7.20;5.50;;;;;;;;;;108195;1269;22564;-30
2022/11/30 03:59:08;;;;;;;7.20;5.50;;;;;;;;;;108195;1271;22745;-30
2022/11/30 04:01:44;;;;;;;7.20;5.50;;;;;;;;;;108184;1275;24082;-30
2022/11/30 04:04:17;;;;;;;7.10;5.60;;;;;;;;;;108129;1272;25250;-30
2022/11/30 04:06:49;;;;;;;8.20;5.70;;;;;;;;;;108154;1270;22552;-30
2022/11/30 04:09:21;;;;;;;7.80;5.60;;;;;;;;;;108117;1264;22616;-29
2022/11/30 04:11:54;;;;;;;7.90;5.80;;;;;;;;;;108152;1273;24176;-29
2022/11/30 04:14:26;;;;;;;8.10;5.90;;;;;;;;;;108165;1278;22513;-30
2022/11/30 04:16:59;;;;;;;7.80;5.70;;;;;;;;;;108156;1271;25547;-30
2022/11/30 04:19:31;;;;;;;7.40;5.50;;;;;;;;;;108178;1271;22640;-29
2022/11/30 04:22:04;;;;;;;7.20;5.50;;;;;;;;;;108171;1272;22578;-29
2022/11/30 04:24:36;;;;;;;7.50;5.50;;;;;;;;;;108163;1271;22641;-29
2022/11/30 04:27:09;;;;;;;7.60;5.60;;;;;;;;;;108139;1272;22581;-30
2022/11/30 04:29:41;;;;;;;7.10;5.50;;;;;;;;;;108161;1277;22574;-30
2022/11/30 04:32:18;;;;;;;7.70;5.30;;;;;;;;;;108151;1279;22576;-30
2022/11/30 04:34:51;;;;;;;7.40;5.70;;;;;;;;;;108204;1271;22597;-30
2022/11/30 04:37:26;;;;;;;6.80;5.00;;;;;;;;;;108220;1272;22569;-29
2022/11/30 04:39:59;;;;;;;7.20;5.50;;;;;;;;;;108174;1272;24197;-30
2022/11/30 04:42:31;;;;;;;7.30;5.60;;;;;;;;;;108205;1271;22599;-29
2022/11/30 04:45:05;;;;;;;7.10;5.40;;;;;;;;;;108141;1274;25330;-29
2022/11/30 04:47:38;;;;;;;7.30;5.40;;;;;;;;;;108148;1277;22519;-29
2022/11/30 04:50:12;;;;;;;7.50;5.60;;;;;;;;;;108150;1274;23921;-30
2022/11/30 04:52:42;;;;;;;;;;;;;;;;;;108108;1273;25249;-30
2022/11/30 04:55:20;;;;;;;7.60;5.40;;;;;;;;;;108211;1271;22585;-29
2022/11/30 04:57:56;;;;;;;6.70;5.10;;;;;;;;;;108186;1268;23631;-29
2022/11/30 05:00:31;;;;;;;7.60;5.60;;;;;;;;;;108199;1271;23856;-30
2022/11/30 05:03:04;;;;;;;7.40;5.60;;;;;;;;;;108219;1272;25403;-29
2022/11/30 05:05:36;;;;;;;7.20;5.00;;;;;;;;;;108134;1266;22518;-29
2022/11/30 05:08:17;;;;;;;7.30;6.00;;;;;;;;;;108137;1268;24152;-29
2022/11/30 05:10:55;;;;;;;6.90;5.40;;;;;;;;;;108116;1279;22590;-29
2022/11/30 05:13:31;;;;;;;7.50;5.60;;;;;;;;;;108097;1273;22682;-30
2022/11/30 05:16:03;;;;;;;7.90;5.50;;;;;;;;;;108205;1265;22636;-29
2022/11/30 05:18:39;;;;;;;8.00;5.30;;;;;;;;;;108231;1271;22558;-29
2022/11/30 05:21:12;;;;;;;9.10;5.20;;;;;;;;;;108200;1278;22578;-30
2022/11/30 05:23:46;;;;;;;7.30;5.40;;;;;;;;;;108164;1275;25396;-30
2022/11/30 05:26:19;;;;;;;7.70;5.50;;;;;;;;;;108171;1273;22628;-29
2022/11/30 05:28:51;;;;;;;8.30;5.30;;;;;;;;;;108123;1271;22731;-30
2022/11/30 05:31:24;;;;;;;6.70;4.70;;;;;;;;;;108132;1271;22611;-30
2022/11/30 05:33:56;;;;;;;7.00;4.70;;;;;;;;;;108111;1271;22566;-29
2022/11/30 05:36:29;;;;;;;8.00;5.50;;;;;;;;;;108206;1271;22582;-30
2022/11/30 05:39:02;;;;;;;7.80;5.50;;;;;;;;;;108210;1271;22581;-30
2022/11/30 05:41:34;;;;;;;7.60;5.00;;;;;;;;;;108213;1277;22590;-30
2022/11/30 05:44:08;;;;;;;6.30;4.70;;;;;;;;;;108206;1276;22682;-30
2022/11/30 05:46:43;;;;;;;6.70;4.90;;;;;;;;;;108210;1265;22549;-30
2022/11/30 05:49:15;;;;;;;7.20;4.90;;;;;;;;;;108201;1274;22620;-30
2022/11/30 05:51:50;;;;;;;8.30;5.50;;;;;;;;;;108189;1277;23863;-29
2022/11/30 05:54:24;;;;;;;7.70;5.20;;;;;;;;;;108162;1272;22540;-30
2022/11/30 05:56:57;;;;;;;7.70;4.60;;;;;;;;;;108173;1271;25270;-30
2022/11/30 05:59:29;;;;;;;6.90;5.20;;;;;;;;;;108188;1271;23957;-29
2022/11/30 06:02:02;;;;;;;7.20;5.00;;;;;;;;;;108239;1271;24039;-30
2022/11/30 06:04:38;;;;;;;6.60;4.80;;;;;;;;;;108176;1272;22651;-30
2022/11/30 06:07:11;;;;;;;7.70;5.00;;;;;;;;;;108238;1278;25406;-30
2022/11/30 06:09:44;;;;;;;7.30;5.30;;;;;;;;;;108216;1278;22517;-30
2022/11/30 06:12:16;;;;;;;7.50;5.30;;;;;;;;;;108229;1272;22505;-30
2022/11/30 06:14:51;;;;;;;7.50;5.40;;;;;;;;;;108212;1271;22522;-30
2022/11/30 06:17:23;;;;;;;7.20;5.30;;;;;;;;;;108232;1271;22584;-30
2022/11/30 06:19:55;;;;;;;7.10;5.10;;;;;;;;;;108262;1277;22756;-30
2022/11/30 06:22:30;;;;;;;7.20;5.10;;;;;;;;;;108225;1271;23077;-30
2022/11/30 06:25:03;;;;;;;7.50;5.10;;;;;;;;;;108227;1271;22574;-30
2022/11/30 06:27:35;;;;;;;7.80;5.40;;;;;;;;;;108229;1268;22549;-30
2022/11/30 06:30:11;;;;;;;6.50;4.80;;;;;;;;;;108207;1271;22536;-30
2022/11/30 06:32:48;;;;;;;7.50;4.90;;;;;;;;;;108258;1276;22505;-30
2022/11/30 06:35:20;;;;;;;7.40;5.10;;;;;;;;;;108206;1279;22685;-30
2022/11/30 06:37:54;;;;;;;8.20;5.90;;;;;;;;;;108247;1271;22591;-30
2022/11/30 06:40:27;;;;;;;7.80;4.90;;;;;;;;;;108205;1276;22577;-30
2022/11/30 06:43:04;;;;;;;6.50;4.80;;;;;;;;;;108219;1275;22569;-30
2022/11/30 06:45:44;;;;;;;6.90;4.90;;;;;;;;;;108172;1271;23742;-30
2022/11/30 06:48:22;;;;;;;6.30;4.60;;;;;;;;;;108160;1273;22572;-30
2022/11/30 06:50:59;;;;;;;6.60;4.80;;;;;;;;;;108167;1272;22579;-30
2022/11/30 06:53:33;;;;;;;6.70;4.80;;;;;;;;;;108162;1272;25334;-30
2022/11/30 06:56:11;;;;;;;7.00;5.20;;;;;;;;;;108123;1276;22507;-30
2022/11/30 06:58:49;;;;;;;6.90;4.90;;;;;;;;;;107964;1272;317176;-30
2022/11/30 07:01:24;;;;;;;7.20;5.10;;;;;;;;;;108182;1265;25286;-30
2022/11/30 07:03:57;;;;;;;6.50;4.80;;;;;;;;;;108224;1277;22496;-30
2022/11/30 07:06:29;;;;;;;8.20;5.20;;;;;;;;;;108145;1273;22777;-30
2022/11/30 07:09:04;;;;;;;7.90;5.30;;;;;;;;;;108131;1273;22684;-30
2022/11/30 07:11:36;;;;;;;6.90;4.70;;;;;;;;;;108185;1277;22512;-30
2022/11/30 07:14:08;;;;;;;7.40;4.70;;;;;;;;;;108136;1274;24151;-29
2022/11/30 07:16:43;;;;;;;7.50;5.10;;;;;;;;;;108159;1272;22628;-30
2022/11/30 07:19:16;;;;;;;9.00;4.70;;;;;;;;;;108178;1278;22598;-30
2022/11/30 07:21:48;;;;;;;8.20;4.80;;;;;;;;;;108214;1265;25447;-30
2022/11/30 07:27:10;;;;;;;8.00;5.30;;;;;;;;;;108156;1277;22517;-30
2022/11/30 07:29:43;;;;;;;6.80;4.60;;;;;;;;;;108146;1273;22502;-30
2022/11/30 07:32:15;;;;;;;8.40;5.00;;;;;;;;;;108173;1272;22593;-29
2022/11/30 07:34:50;;;;;;;8.50;5.30;;;;;;;;;;108126;1271;22587;-30
2022/11/30 07:37:22;;;;;;;7.50;4.80;;;;;;;;;;108098;1279;22574;-30
2022/11/30 07:39:54;;;;;;;8.00;4.90;;;;;;;;;;108105;1278;22544;-30
2022/11/30 07:42:27;;;;;;;9.40;5.10;;;;;;;;;;108148;1278;22569;-30
2022/11/30 07:44:59;;;;;;;8.90;4.80;;;;;;;;;;108134;1280;22574;-30
2022/11/30 07:47:32;;;;;;;8.10;4.90;;;;;;;;;;108031;1274;22540;-30
2022/11/30 07:50:04;;;;;;;6.20;4.50;;;;;;;;;;108095;1280;22589;-30
2022/11/30 07:52:37;;;;;;;7.10;4.80;;;;;;;;;;108133;1275;22615;-30
2022/11/30 07:55:14;;;;;;;7.10;4.70;;;;;;;;;;108119;1265;22569;-30
2022/11/30 07:57:48;;;;;;;7.50;5.00;;;;;;;;;;108132;1280;24949;-30
2022/11/30 08:00:23;;;;;;;7.60;5.00;;;;;;;;;;108131;1280;22510;-30
2022/11/30 08:02:56;;;;;;;7.10;4.60;;;;;;;;;;108072;1274;23934;-30
2022/11/30 08:05:28;;;;;;;7.40;5.10;;;;;;;;;;108140;1272;25430;-30
2022/11/30 08:08:00;;;;;;;6.80;4.50;;;;;;;;;;108096;1272;22582;-30
2022/11/30 08:10:32;;;;;;;7.60;5.00;;;;;;;;;;108124;1280;22677;-30
2022/11/30 08:13:08;;;;;;;7.20;4.70;;;;;;;;;;108124;1271;22595;-30
2022/11/30 08:15:40;;;;;;;9.20;5.00;;;;;;;;;;108120;1274;22512;-30
2022/11/30 08:18:12;;;;;;;7.90;4.90;;;;;;;;;;108073;1280;22972;-30
2022/11/30 08:20:45;;;;;;;6.80;4.90;;;;;;;;;;108129;1280;22883;-30
2022/11/30 08:23:21;;;;;;;7.10;5.30;;;;;;;;;;108189;1272;23152;-30
2022/11/30 08:25:54;;;;;;;7.30;4.70;;;;;;;;;;108141;1273;22952;-30
2022/11/30 08:28:26;;;;;;;;;;;;;;;;;;108096;1271;22571;-30
2022/11/30 08:31:03;;;;;;;7.10;4.70;;;;;;;;;;108125;1279;22549;-30
2022/11/30 08:33:38;;;;;;;7.20;4.80;;;;;;;;;;108147;1269;25407;-30
2022/11/30 08:36:17;;;;;;;6.40;4.50;;;;;;;;;;108108;1275;22537;-30
2022/11/30 08:38:50;;;;;;;7.00;4.90;;;;;;;;;;108070;1271;22652;-30
2022/11/30 08:41:24;;;;;;;7.70;4.70;;;;;;;;;;108130;1275;22577;-30
2022/11/30 08:43:59;;;;;;;7.10;4.60;;;;;;;;;;108121;1271;22571;-30
2022/11/30 08:46:33;;;;;;;6.40;4.60;;;;;;;;;;108089;1272;22580;-30
2022/11/30 08:49:06;;;;;;;6.90;4.80;;;;;;;;;;108068;1278;22594;-30
2022/11/30 08:51:38;;;;;;;7.00;4.80;;;;;;;;;;108043;1275;22588;-30
2022/11/30 08:54:10;;;;;;;7.20;4.90;;;;;;;;;;108052;1277;22532;-30
2022/11/30 08:56:43;;;;;;;7.50;4.80;;;;;;;;;;108046;1279;23910;-30
2022/11/30 08:59:14;;;;;;;;;;;;;;;;;;108075;1279;22498;-30
2022/11/30 09:01:47;;;;;;;7.50;4.70;;;;;;;;;;108145;1275;22928;-30
2022/11/30 09:04:19;;;;;;;7.70;4.80;;;;;;;;;;108119;1277;22654;-30
2022/11/30 09:06:57;;;;;;;7.50;4.90;;;;;;;;;;108101;1280;22710;-30
2022/11/30 09:09:32;;;;;;;7.20;4.80;;;;;;;;;;108070;1273;22520;-30
2022/11/30 09:12:05;;;;;;;6.50;4.80;;;;;;;;;;108088;1277;22539;-30
2022/11/30 09:14:38;;;;;;;7.50;5.10;;;;;;;;;;108051;1279;22591;-30
2022/11/30 09:17:11;;;;;;;7.20;5.20;;;;;;;;;;108061;1270;22595;-30
2022/11/30 09:19:43;;;;;;;7.40;5.10;;;;;;;;;;108066;1280;22515;-30
2022/11/30 09:22:20;;;;;;;7.50;5.00;;;;;;;;;;108114;1280;22717;-30
2022/11/30 09:24:53;;;;;;;7.40;5.30;;;;;;;;;;108118;1272;22627;-30
2022/11/30 09:27:29;;;;;;;6.50;4.60;;;;;;;;;;108130;1280;22508;-30
2022/11/30 09:30:02;;;;;;;7.50;4.90;;;;;;;;;;108060;1273;22704;-30
2022/11/30 09:32:34;;;;;;;7.30;5.00;;;;;;;;;;108031;1273;22523;-30
2022/11/30 09:35:08;;;;;;;7.50;5.00;;;;;;;;;;108051;1276;22912;-30
2022/11/30 09:37:41;;;;;;;7.00;4.90;;;;;;;;;;108056;1275;25860;-30
2022/11/30 09:40:15;;;;;;;8.50;5.60;;;;;;;;;;108073;1280;23044;-30
2022/11/30 09:43:00;;;;;;;7.40;5.10;;;;;;;;;;108160;1280;23268;-30
2022/11/30 09:45:36;;;;;;;8.10;5.20;;;;;;;;;;108414;1256;22625;-31
2022/11/30 09:48:50;;;;;;;7.30;5.20;;;;;;;;;;108141;1274;22578;-31
2022/11/30 09:51:25;;;;;;;;;;;;;;;;;;108065;1275;22578;-31
2022/11/30 09:54:07;;;;;;;8.60;5.40;;;;;;;;;;108149;1278;22621;-30
2022/11/30 09:56:42;;;;;;;7.70;5.00;;;;;;;;;;108151;1278;22573;-30
2022/11/30 09:59:21;;;;;;;8.30;5.50;;;;;;;;;;108098;1275;22584;-31
2022/11/30 10:01:53;;;;;;;7.80;5.00;;;;;;;;;;108136;1265;22582;-31
2022/11/30 10:04:29;;;;;;;7.90;5.40;;;;;;;;;;108116;1272;22617;-31
2022/11/30 10:07:16;;;;;;;8.40;5.80;;;;;;;;;;108153;1274;22574;-31
2022/11/30 10:09:56;;;;;;;7.60;5.40;;;;;;;;;;108082;1265;24342;-31
2022/11/30 10:12:36;;;;;;;8.00;5.40;;;;;;;;;;108136;1275;24003;-31
2022/11/30 10:15:27;;;;;;;7.40;5.30;;;;;;;;;;108146;1277;22508;-31
2022/11/30 10:18:13;;;;;;;11.00;5.70;;;;;;;;;;108143;1271;22569;-32
2022/11/30 10:21:06;;;;;;;7.70;5.60;;;;;;;;;;108118;1271;22596;-31
2022/11/30 10:24:03;;;;;;;8.30;5.60;;;;;;;;;;108161;1272;22633;-30
2022/11/30 10:26:40;;;;;;;8.50;5.80;;;;;;;;;;108146;1271;22579;-31
2022/11/30 10:29:20;;;;;;;9.50;5.50;;;;;;;;;;108132;1272;22578;-31
2022/11/30 10:32:00;;;;;;;7.40;5.50;;;;;;;;;;108118;1271;22569;-31
2022/11/30 10:34:39;;;;;;;8.30;6.00;;;;;;;;;;108163;1272;22600;-30
2022/11/30 10:37:18;;;;;;;7.90;5.80;;;;;;;;;;108158;1272;25457;-30
2022/11/30 10:40:04;;;;;;;8.50;5.70;;;;;;;;;;108146;1279;25423;-30
2022/11/30 10:42:44;;;;;;;8.00;5.60;;;;;;;;;;108084;1275;25450;-30
2022/11/30 10:45:25;;;;;;;8.30;5.40;;;;;;;;;;108113;1272;25227;-30
2022/11/30 10:48:06;;;;;;;8.10;5.50;;;;;;;;;;108139;1271;22620;-30
2022/11/30 10:50:39;;;;;;;7.90;5.60;;;;;;;;;;108093;1273;25254;-30
2022/11/30 10:53:16;;;;;;;7.20;5.40;;;;;;;;;;108141;1272;23944;-30
2022/11/30 10:55:58;;;;;;;8.10;5.70;;;;;;;;;;108127;1278;22578;-30
2022/11/30 10:58:38;;;;;;;7.40;5.40;;;;;;;;;;108142;1271;22572;-30
2022/11/30 11:01:30;;;;;;;7.20;5.30;;;;;;;;;;108079;1273;25727;-31
2022/11/30 11:04:19;;;;;;;7.20;5.20;;;;;;;;;;108115;1265;22592;-30
2022/11/30 11:06:54;;;;;;;7.20;5.20;;;;;;;;;;108170;1274;22563;-31
2022/11/30 11:09:41;;;;;;;7.80;5.00;;;;;;;;;;108139;1279;22600;-30
2022/11/30 11:12:21;;;;;;;7.00;5.10;;;;;;;;;;108104;1272;22522;-30
2022/11/30 11:15:16;;;;;;;7.90;5.20;;;;;;;;;;108161;1272;22538;-30
2022/11/30 11:17:49;;;;;;;6.50;4.80;;;;;;;;;;108140;1271;22631;-30
2022/11/30 11:20:35;;;;;;;6.80;4.80;;;;;;;;;;108167;1272;22877;-30
2022/11/30 11:23:25;;;;;;;7.10;4.80;;;;;;;;;;108070;1277;22599;-30
2022/11/30 11:26:03;;;;;;;7.40;5.00;;;;;;;;;;108130;1272;25345;-30
2022/11/30 11:28:38;;;;;;;7.00;4.40;;;;;;;;;;108079;1274;22578;-30
2022/11/30 11:31:37;;;;;;;6.90;4.90;;;;;;;;;;108076;1280;22518;-30
2022/11/30 11:34:31;;;;;;;7.30;4.70;;;;;;;;;;108017;1268;22569;-30
2022/11/30 11:37:17;;;;;;;6.70;4.80;;;;;;;;;;108123;1278;22656;-30
2022/11/30 11:40:05;;;;;;;7.40;4.70;;;;;;;;;;108140;1272;22590;-29
2022/11/30 11:42:46;;;;;;;7.10;4.60;;;;;;;;;;108095;1274;22549;-30
2022/11/30 11:45:25;;;;;;;6.80;4.70;;;;;;;;;;108060;1268;22492;-30
2022/11/30 11:48:04;;;;;;;6.90;4.70;;;;;;;;;;108085;1278;22584;-30
2022/11/30 11:50:37;;;;;;;6.60;4.70;;;;;;;;;;108068;1272;22606;-29
2022/11/30 11:53:34;;;;;;;6.50;4.50;;;;;;;;;;108062;1271;22577;-29
2022/11/30 11:56:16;;;;;;;7.00;4.90;;;;;;;;;;108131;1265;22507;-31
2022/11/30 11:58:54;;;;;;;7.00;4.80;;;;;;;;;;108117;1279;22600;-31
2022/11/30 12:01:45;;;;;;;6.40;4.50;;;;;;;;;;108151;1272;22593;-30
2022/11/30 12:04:39;;;;;;;6.60;4.40;;;;;;;;;;108054;1269;22571;-30
2022/11/30 12:07:24;;;;;;;6.50;4.20;;;;;;;;;;108059;1275;22572;-30
2022/11/30 12:10:11;;;;;;;6.30;4.40;;;;;;;;;;108073;1277;22598;-30
2022/11/30 12:12:44;;;;;;;6.90;4.90;;;;;;;;;;108040;1272;25399;-29
2022/11/30 12:15:17;;;;;;;6.50;4.30;;;;;;;;;;108133;1278;25396;-30
2022/11/30 12:18:06;;;;;;;6.40;4.50;;;;;;;;;;108127;1276;22592;-30
2022/11/30 12:20:54;;;;;;;6.30;3.90;;;;;;;;;;108124;1274;22494;-30
2022/11/30 12:24:02;;;;;;;6.70;4.20;;;;;;;;;;108099;1274;25413;-31
2022/11/30 12:26:43;;;;;;;5.90;4.40;;;;;;;;;;108067;1277;22567;-30
2022/11/30 12:29:32;;;;;;;7.00;4.50;;;;;;;;;;108037;1281;22592;-30
2022/11/30 12:32:24;;;;;;;5.80;4.10;;;;;;;;;;108050;1264;22513;-30
2022/11/30 12:35:20;;;;;;;6.10;4.10;;;;;;;;;;108072;1274;22575;-29
2022/11/30 12:38:08;;;;;;;6.00;4.20;;;;;;;;;;108109;1271;23845;-29
2022/11/30 12:40:51;;;;;;;6.50;4.50;;;;;;;;;;108099;1271;22582;-29
2022/11/30 12:43:38;;;;;;;6.20;4.20;;;;;;;;;;108075;1273;22724;-29
2022/11/30 12:46:19;;;;;;;7.20;4.00;;;;;;;;;;108099;1279;22513;-29
2022/11/30 12:49:11;;;;;;;6.50;4.30;;;;;;;;;;108106;1279;22605;-29
2022/11/30 12:51:54;;;;;;;6.50;4.40;;;;;;;;;;108120;1273;22518;-29
2022/11/30 12:54:37;;;;;;;5.70;4.10;;;;;;;;;;108110;1272;24208;-29
2022/11/30 12:57:19;;;;;;;5.90;3.90;;;;;;;;;;108125;1278;22519;-29
2022/11/30 13:00:04;;;;;;;6.10;4.40;;;;;;;;;;108152;1275;22574;-29
2022/11/30 13:03:04;;;;;;;6.10;4.00;;;;;;;;;;108123;1273;22543;-29
2022/11/30 13:05:42;;;;;;;5.90;3.80;;;;;;;;;;108112;1274;22505;-29
2022/11/30 13:08:23;;;;;;;6.00;4.30;;;;;;;;;;108142;1278;22519;-29
2022/11/30 13:11:01;;;;;;;6.50;4.10;;;;;;;;;;108129;1278;22563;-29
2022/11/30 13:13:36;;;;;;;6.20;3.70;;;;;;;;;;108135;1272;22582;-29
2022/11/30 13:16:10;;;;;;;6.50;3.90;;;;;;;;;;108110;1268;22587;-29
2022/11/30 13:18:44;;;;;;;6.10;3.90;;;;;;;;;;108149;1278;22510;-29
2022/11/30 13:21:29;;;;;;;7.00;4.00;;;;;;;;;;108166;1274;22522;-30
2022/11/30 13:24:11;;;;;;;6.40;4.30;;;;;;;;;;108181;1269;22564;-30
2022/11/30 13:26:51;;;;;;;6.60;4.50;;;;;;;;;;108123;1278;23912;-30
2022/11/30 13:30:05;;;;;;;7.50;4.90;;;;;;;;;;108113;1280;22561;-30
2022/11/30 13:32:39;;;;;;;7.60;5.00;;;;;;;;;;108006;1280;22589;-30
2022/11/30 13:35:54;;;;;;;8.20;5.40;;;;;;;;;;108027;1277;25553;-30
2022/11/30 13:38:29;;;;;;;12.30;5.50;;;;;;;;;;108128;1278;22658;-30
2022/11/30 13:41:05;;;;;;;7.70;5.20;;;;;;;;;;108133;1278;22563;-30
2022/11/30 13:43:45;;;;;;;8.80;5.20;;;;;;;;;;108148;1279;22563;-30
2022/11/30 13:46:23;;;;;;;9.50;5.50;;;;;;;;;;108070;1277;22563;-30
2022/11/30 13:49:21;;;;;;;9.30;5.40;;;;;;;;;;108058;1271;22593;-29
2022/11/30 13:51:54;;;;;;;8.50;5.50;;;;;;;;;;108076;1280;22592;-29
2022/11/30 13:54:54;;;;;;;10.00;5.20;;;;;;;;;;108147;1273;22581;-29
2022/11/30 13:58:06;;;;;;;8.00;5.20;;;;;;;;;;107995;1278;22517;-30
2022/11/30 14:01:25;;;;;;;8.10;5.00;;;;;;;;;;108170;1273;22573;-30
2022/11/30 14:04:31;;;;;;;7.20;4.80;;;;;;;;;;108130;1274;22508;-29
2022/11/30 14:07:08;;;;;;;8.60;5.50;;;;;;;;;;108090;1272;22566;-31
2022/11/30 14:10:30;;;;;;;8.10;4.20;;;;;;;;;;108110;1273;22575;-29
2022/11/30 14:13:05;;;;;;;8.20;5.10;;;;;;;;;;108069;1272;22516;-29
2022/11/30 14:15:56;;;;;;;8.00;5.00;;;;;;;;;;108064;1275;22565;-30
2022/11/30 14:18:43;;;;;;;8.30;5.00;;;;;;;;;;108134;1278;22680;-30
2022/11/30 14:21:26;;;;;;;7.10;4.70;;;;;;;;;;108145;1275;22509;-30
2022/11/30 14:24:05;;;;;;;8.10;4.80;;;;;;;;;;108125;1273;22573;-30
2022/11/30 14:26:44;;;;;;;7.90;5.00;;;;;;;;;;108049;1272;23920;-30
2022/11/30 14:29:22;;;;;;;8.40;5.00;;;;;;;;;;108139;1272;22564;-30
2022/11/30 14:32:00;;;;;;;8.00;4.90;;;;;;;;;;108112;1278;24220;-30
2022/11/30 14:34:37;;;;;;;6.90;4.80;;;;;;;;;;108088;1277;22663;-30
2022/11/30 14:37:20;;;;;;;7.60;4.70;;;;;;;;;;108121;1278;22569;-30
2022/11/30 14:39:55;;;;;;;7.30;4.90;;;;;;;;;;108144;1279;22585;-30
2022/11/30 14:42:31;;;;;;;8.20;4.40;;;;;;;;;;108162;1268;22580;-30
2022/11/30 14:45:26;;;;;;;6.70;4.40;;;;;;;;;;107976;1279;22644;-29
2022/11/30 14:48:12;;;;;;;7.30;4.80;;;;;;;;;;108050;1280;22629;-30
2022/11/30 14:50:50;;;;;;;8.00;5.00;;;;;;;;;;108094;1280;22521;-28
2022/11/30 14:53:36;;;;;;;7.00;4.80;;;;;;;;;;108083;1280;22841;-28
2022/11/30 14:56:20;;;;;;;7.00;4.70;;;;;;;;;;108345;1280;22696;-28
2022/11/30 14:59:01;;;;;;;7.30;4.60;;;;;;;;;;107926;1273;257742;-28
2022/11/30 15:01:37;;;;;;;6.70;4.40;;;;;;;;;;108112;1272;22590;-28
2022/11/30 15:04:16;;;;;;;7.20;4.40;;;;;;;;;;108145;1275;22529;-28
2022/11/30 15:06:48;;;;;;;6.80;4.30;;;;;;;;;;108133;1279;24443;-28
2022/11/30 15:09:26;;;;;;;7.00;4.50;;;;;;;;;;108059;1280;22540;-28
2022/11/30 15:11:59;;;;;;;7.00;4.80;;;;;;;;;;108084;1275;22559;-28
2022/11/30 15:14:30;;;;;;;;;;;;;;;;;;108144;1279;22555;-28
2022/11/30 15:17:12;;;;;;;6.70;4.50;;;;;;;;;;108119;1281;22504;-28
2022/11/30 15:19:52;;;;;;;8.00;4.60;;;;;;;;;;108119;1280;22887;-28
2022/11/30 15:22:26;;;;;;;6.40;4.80;;;;;;;;;;108120;1280;22546;-28
2022/11/30 15:24:59;;;;;;;6.90;4.20;;;;;;;;;;108217;1272;22520;-28
2022/11/30 15:27:31;;;;;;;6.70;4.50;;;;;;;;;;108145;1272;24216;-28
2022/11/30 15:30:13;;;;;;;7.00;4.50;;;;;;;;;;108113;1274;22526;-28
2022/11/30 15:32:51;;;;;;;7.00;4.60;;;;;;;;;;108121;1274;22573;-28
2022/11/30 15:35:26;;;;;;;7.10;4.70;;;;;;;;;;108107;1272;22568;-28
2022/11/30 15:37:59;;;;;;;6.60;4.60;;;;;;;;;;108090;1280;22550;-28